sensor_id;sensor_type;location;lat;lon;timestamp;temperature;humidity
69082;DHT22;56184;51.986;5.760;2022-11-21T00:00:52;4.50;96.50
69082;DHT22;56184;51.986;5.760;2022-11-21T00:03:18;4.40;96.60
69082;DHT22;56184;51.986;5.760;2022-11-21T00:05:46;4.50;96.80
69082;DHT22;56184;51.986;5.760;2022-11-21T00:08:17;4.40;96.80
69082;DHT22;56184;51.986;5.760;2022-11-21T00:10:43;4.40;96.80
69082;DHT22;56184;51.986;5.760;2022-11-21T00:13:17;4.40;96.90
69082;DHT22;56184;51.986;5.760;2022-11-21T00:15:43;4.40;96.90
69082;DHT22;56184;51.986;5.760;2022-11-21T00:18:09;4.50;96.60
69082;DHT22;56184;51.986;5.760;2022-11-21T00:20:39;4.40;96.70
69082;DHT22;56184;51.986;5.760;2022-11-21T00:23:05;4.40;96.80
69082;DHT22;56184;51.986;5.760;2022-11-21T00:25:31;4.40;96.90
69082;DHT22;56184;51.986;5.760;2022-11-21T00:27:56;4.40;96.90
69082;DHT22;56184;51.986;5.760;2022-11-21T00:30:22;4.40;96.90
69082;DHT22;56184;51.986;5.760;2022-11-21T00:32:49;4.40;96.90
69082;DHT22;56184;51.986;5.760;2022-11-21T00:35:14;4.40;96.80
69082;DHT22;56184;51.986;5.760;2022-11-21T00:37:40;4.30;96.60
69082;DHT22;56184;51.986;5.760;2022-11-21T00:40:14;4.30;97.00
69082;DHT22;56184;51.986;5.760;2022-11-21T00:42:40;4.30;97.10
69082;DHT22;56184;51.986;5.760;2022-11-21T00:45:06;4.30;96.80
69082;DHT22;56184;51.986;5.760;2022-11-21T00:47:31;4.30;96.80
69082;DHT22;56184;51.986;5.760;2022-11-21T00:49:57;4.30;96.90
69082;DHT22;56184;51.986;5.760;2022-11-21T00:52:22;4.20;96.90
69082;DHT22;56184;51.986;5.760;2022-11-21T00:54:48;4.20;96.70
69082;DHT22;56184;51.986;5.760;2022-11-21T00:57:13;4.20;96.70
69082;DHT22;56184;51.986;5.760;2022-11-21T00:59:39;4.20;96.80
69082;DHT22;56184;51.986;5.760;2022-11-21T01:02:05;4.20;97.00
69082;DHT22;56184;51.986;5.760;2022-11-21T01:04:32;4.20;97.10
69082;DHT22;56184;51.986;5.760;2022-11-21T01:06:58;4.20;97.00
69082;DHT22;56184;51.986;5.760;2022-11-21T01:09:23;4.20;97.20
69082;DHT22;56184;51.986;5.760;2022-11-21T01:11:49;4.20;97.10
69082;DHT22;56184;51.986;5.760;2022-11-21T01:14:15;4.20;97.10
69082;DHT22;56184;51.986;5.760;2022-11-21T01:16:41;4.20;97.10
69082;DHT22;56184;51.986;5.760;2022-11-21T01:19:06;4.20;97.20
69082;DHT22;56184;51.986;5.760;2022-11-21T01:21:32;4.20;97.20
69082;DHT22;56184;51.986;5.760;2022-11-21T01:23:58;4.10;97.10
69082;DHT22;56184;51.986;5.760;2022-11-21T01:26:27;4.10;97.20
69082;DHT22;56184;51.986;5.760;2022-11-21T01:28:53;4.10;97.30
69082;DHT22;56184;51.986;5.760;2022-11-21T01:31:27;4.10;97.20
69082;DHT22;56184;51.986;5.760;2022-11-21T01:33:53;4.10;97.30
69082;DHT22;56184;51.986;5.760;2022-11-21T01:36:21;4.10;97.30
69082;DHT22;56184;51.986;5.760;2022-11-21T01:38:50;4.10;97.40
69082;DHT22;56184;51.986;5.760;2022-11-21T01:41:19;4.10;97.30
69082;DHT22;56184;51.986;5.760;2022-11-21T01:43:44;4.10;97.20
69082;DHT22;56184;51.986;5.760;2022-11-21T01:46:14;4.10;97.30
69082;DHT22;56184;51.986;5.760;2022-11-21T01:51:39;4.10;97.20
69082;DHT22;56184;51.986;5.760;2022-11-21T01:54:22;4.10;97.20
69082;DHT22;56184;51.986;5.760;2022-11-21T01:57:30;4.10;97.20
69082;DHT22;56184;51.986;5.760;2022-11-21T01:59:52;4.00;97.20
69082;DHT22;56184;51.986;5.760;2022-11-21T02:02:22;4.10;97.20
69082;DHT22;56184;51.986;5.760;2022-11-21T02:04:50;4.10;97.20
69082;DHT22;56184;51.986;5.760;2022-11-21T02:07:19;4.00;97.60
69082;DHT22;56184;51.986;5.760;2022-11-21T02:09:49;4.00;97.30
69082;DHT22;56184;51.986;5.760;2022-11-21T02:12:42;4.00;97.30
69082;DHT22;56184;51.986;5.760;2022-11-21T02:15:10;4.00;97.30
69082;DHT22;56184;51.986;5.760;2022-11-21T02:17:35;4.00;97.30
69082;DHT22;56184;51.986;5.760;2022-11-21T02:20:06;4.00;97.30
69082;DHT22;56184;51.986;5.760;2022-11-21T02:22:41;4.00;97.30
69082;DHT22;56184;51.986;5.760;2022-11-21T02:25:17;4.00;97.10
69082;DHT22;56184;51.986;5.760;2022-11-21T02:27:45;4.00;96.90
69082;DHT22;56184;51.986;5.760;2022-11-21T02:30:11;4.00;96.90
69082;DHT22;56184;51.986;5.760;2022-11-21T02:32:39;4.00;97.20
69082;DHT22;56184;51.986;5.760;2022-11-21T02:35:08;4.00;97.30
69082;DHT22;56184;51.986;5.760;2022-11-21T02:37:35;4.00;97.40
69082;DHT22;56184;51.986;5.760;2022-11-21T02:40:13;4.00;97.50
69082;DHT22;56184;51.986;5.760;2022-11-21T02:42:56;4.00;97.60
69082;DHT22;56184;51.986;5.760;2022-11-21T02:45:38;4.00;97.70
69082;DHT22;56184;51.986;5.760;2022-11-21T02:48:04;4.00;97.60
69082;DHT22;56184;51.986;5.760;2022-11-21T02:50:32;4.00;97.60
69082;DHT22;56184;51.986;5.760;2022-11-21T02:52:58;4.00;97.50
69082;DHT22;56184;51.986;5.760;2022-11-21T02:55:24;4.00;97.50
69082;DHT22;56184;51.986;5.760;2022-11-21T02:57:50;4.00;97.40
69082;DHT22;56184;51.986;5.760;2022-11-21T03:00:16;4.00;97.50
69082;DHT22;56184;51.986;5.760;2022-11-21T03:02:42;3.90;97.40
69082;DHT22;56184;51.986;5.760;2022-11-21T03:05:10;3.90;97.40
69082;DHT22;56184;51.986;5.760;2022-11-21T03:07:36;3.90;97.40
69082;DHT22;56184;51.986;5.760;2022-11-21T03:10:05;3.90;97.30
69082;DHT22;56184;51.986;5.760;2022-11-21T03:12:31;3.90;97.30
69082;DHT22;56184;51.986;5.760;2022-11-21T03:14:59;3.90;97.40
69082;DHT22;56184;51.986;5.760;2022-11-21T03:17:25;3.90;97.40
69082;DHT22;56184;51.986;5.760;2022-11-21T03:19:50;3.90;97.60
69082;DHT22;56184;51.986;5.760;2022-11-21T03:22:16;3.90;97.60
69082;DHT22;56184;51.986;5.760;2022-11-21T03:24:41;3.80;97.40
69082;DHT22;56184;51.986;5.760;2022-11-21T03:27:07;3.80;97.50
69082;DHT22;56184;51.986;5.760;2022-11-21T03:29:32;3.80;97.40
69082;DHT22;56184;51.986;5.760;2022-11-21T03:31:58;3.80;97.30
69082;DHT22;56184;51.986;5.760;2022-11-21T03:34:24;3.70;97.20
69082;DHT22;56184;51.986;5.760;2022-11-21T03:36:50;3.70;97.30
69082;DHT22;56184;51.986;5.760;2022-11-21T03:39:16;3.70;97.50
69082;DHT22;56184;51.986;5.760;2022-11-21T03:41:42;3.70;97.60
69082;DHT22;56184;51.986;5.760;2022-11-21T03:44:09;3.70;97.80
69082;DHT22;56184;51.986;5.760;2022-11-21T03:46:39;3.70;97.70
69082;DHT22;56184;51.986;5.760;2022-11-21T03:49:06;3.70;97.60
69082;DHT22;56184;51.986;5.760;2022-11-21T03:51:37;3.70;97.60
69082;DHT22;56184;51.986;5.760;2022-11-21T03:54:04;3.70;97.70
69082;DHT22;56184;51.986;5.760;2022-11-21T03:56:30;3.70;97.80
69082;DHT22;56184;51.986;5.760;2022-11-21T03:58:56;3.70;97.80
69082;DHT22;56184;51.986;5.760;2022-11-21T04:01:22;3.70;97.70
69082;DHT22;56184;51.986;5.760;2022-11-21T04:03:56;3.70;97.60
69082;DHT22;56184;51.986;5.760;2022-11-21T04:06:22;3.70;97.80
69082;DHT22;56184;51.986;5.760;2022-11-21T04:08:48;3.70;97.90
69082;DHT22;56184;51.986;5.760;2022-11-21T04:11:14;3.80;97.70
69082;DHT22;56184;51.986;5.760;2022-11-21T04:13:39;3.80;97.70
69082;DHT22;56184;51.986;5.760;2022-11-21T04:16:05;3.80;97.70
69082;DHT22;56184;51.986;5.760;2022-11-21T04:18:33;3.70;97.90
69082;DHT22;56184;51.986;5.760;2022-11-21T04:21:01;3.70;98.10
69082;DHT22;56184;51.986;5.760;2022-11-21T04:23:27;3.70;98.30
69082;DHT22;56184;51.986;5.760;2022-11-21T04:25:53;3.70;98.40
69082;DHT22;56184;51.986;5.760;2022-11-21T04:28:19;3.70;98.40
69082;DHT22;56184;51.986;5.760;2022-11-21T04:30:45;3.70;98.50
69082;DHT22;56184;51.986;5.760;2022-11-21T04:33:12;3.80;98.50
69082;DHT22;56184;51.986;5.760;2022-11-21T04:35:39;3.80;98.20
69082;DHT22;56184;51.986;5.760;2022-11-21T04:38:08;3.80;98.40
69082;DHT22;56184;51.986;5.760;2022-11-21T04:40:34;3.80;98.50
69082;DHT22;56184;51.986;5.760;2022-11-21T04:42:59;3.80;98.30
69082;DHT22;56184;51.986;5.760;2022-11-21T04:45:25;3.80;98.30
69082;DHT22;56184;51.986;5.760;2022-11-21T04:47:51;3.80;98.40
69082;DHT22;56184;51.986;5.760;2022-11-21T04:50:17;3.70;98.30
69082;DHT22;56184;51.986;5.760;2022-11-21T04:52:48;3.80;98.40
69082;DHT22;56184;51.986;5.760;2022-11-21T04:55:14;3.80;98.50
69082;DHT22;56184;51.986;5.760;2022-11-21T04:57:40;3.80;98.30
69082;DHT22;56184;51.986;5.760;2022-11-21T05:00:06;3.80;98.00
69082;DHT22;56184;51.986;5.760;2022-11-21T05:02:32;3.80;98.00
69082;DHT22;56184;51.986;5.760;2022-11-21T05:04:58;3.80;97.70
69082;DHT22;56184;51.986;5.760;2022-11-21T05:07:23;3.80;97.80
69082;DHT22;56184;51.986;5.760;2022-11-21T05:09:50;3.80;97.90
69082;DHT22;56184;51.986;5.760;2022-11-21T05:12:15;3.80;98.00
69082;DHT22;56184;51.986;5.760;2022-11-21T05:14:59;3.80;98.40
69082;DHT22;56184;51.986;5.760;2022-11-21T05:17:27;3.80;98.50
69082;DHT22;56184;51.986;5.760;2022-11-21T05:19:53;3.80;98.70
69082;DHT22;56184;51.986;5.760;2022-11-21T05:22:19;3.80;98.70
69082;DHT22;56184;51.986;5.760;2022-11-21T05:24:44;3.80;98.60
69082;DHT22;56184;51.986;5.760;2022-11-21T05:27:10;3.80;98.40
69082;DHT22;56184;51.986;5.760;2022-11-21T05:29:35;3.70;98.40
69082;DHT22;56184;51.986;5.760;2022-11-21T05:32:01;3.80;98.50
69082;DHT22;56184;51.986;5.760;2022-11-21T05:34:26;3.80;98.30
69082;DHT22;56184;51.986;5.760;2022-11-21T05:36:52;3.80;98.40
69082;DHT22;56184;51.986;5.760;2022-11-21T05:39:23;3.80;98.40
69082;DHT22;56184;51.986;5.760;2022-11-21T05:41:48;3.90;98.50
69082;DHT22;56184;51.986;5.760;2022-11-21T05:44:14;3.80;98.40
69082;DHT22;56184;51.986;5.760;2022-11-21T05:46:39;3.80;98.40
69082;DHT22;56184;51.986;5.760;2022-11-21T05:49:05;3.80;98.30
69082;DHT22;56184;51.986;5.760;2022-11-21T05:51:31;3.80;98.50
69082;DHT22;56184;51.986;5.760;2022-11-21T05:53:57;3.90;98.50
69082;DHT22;56184;51.986;5.760;2022-11-21T05:56:23;3.90;98.50
69082;DHT22;56184;51.986;5.760;2022-11-21T05:58:49;3.90;98.50
69082;DHT22;56184;51.986;5.760;2022-11-21T06:01:15;3.90;98.60
69082;DHT22;56184;51.986;5.760;2022-11-21T06:04:00;3.90;98.50
69082;DHT22;56184;51.986;5.760;2022-11-21T06:06:26;3.90;98.60
69082;DHT22;56184;51.986;5.760;2022-11-21T06:08:52;3.90;98.80
69082;DHT22;56184;51.986;5.760;2022-11-21T06:11:17;3.90;98.70
69082;DHT22;56184;51.986;5.760;2022-11-21T06:13:43;3.90;98.70
69082;DHT22;56184;51.986;5.760;2022-11-21T06:16:11;3.90;98.50
69082;DHT22;56184;51.986;5.760;2022-11-21T06:18:42;3.90;98.60
69082;DHT22;56184;51.986;5.760;2022-11-21T06:21:13;3.90;98.50
69082;DHT22;56184;51.986;5.760;2022-11-21T06:23:39;3.90;98.60
69082;DHT22;56184;51.986;5.760;2022-11-21T06:26:06;4.00;98.80
69082;DHT22;56184;51.986;5.760;2022-11-21T06:28:37;4.00;99.00
69082;DHT22;56184;51.986;5.760;2022-11-21T06:31:07;4.00;98.80
69082;DHT22;56184;51.986;5.760;2022-11-21T06:33:34;3.90;98.70
69082;DHT22;56184;51.986;5.760;2022-11-21T06:36:08;4.00;98.50
69082;DHT22;56184;51.986;5.760;2022-11-21T06:38:34;4.00;98.50
69082;DHT22;56184;51.986;5.760;2022-11-21T06:41:09;4.00;98.60
69082;DHT22;56184;51.986;5.760;2022-11-21T06:43:35;4.00;98.70
69082;DHT22;56184;51.986;5.760;2022-11-21T06:46:01;4.10;98.60
69082;DHT22;56184;51.986;5.760;2022-11-21T06:48:29;4.10;98.20
69082;DHT22;56184;51.986;5.760;2022-11-21T06:50:55;4.10;98.40
69082;DHT22;56184;51.986;5.760;2022-11-21T06:53:20;4.10;98.50
69082;DHT22;56184;51.986;5.760;2022-11-21T06:55:46;4.00;98.60
69082;DHT22;56184;51.986;5.760;2022-11-21T06:58:11;4.00;98.70
69082;DHT22;56184;51.986;5.760;2022-11-21T07:00:37;4.00;98.60
69082;DHT22;56184;51.986;5.760;2022-11-21T07:03:03;4.00;98.90
69082;DHT22;56184;51.986;5.760;2022-11-21T07:05:29;4.00;98.60
69082;DHT22;56184;51.986;5.760;2022-11-21T07:07:59;4.10;98.40
69082;DHT22;56184;51.986;5.760;2022-11-21T07:10:25;4.10;98.40
69082;DHT22;56184;51.986;5.760;2022-11-21T07:12:50;4.10;98.30
69082;DHT22;56184;51.986;5.760;2022-11-21T07:15:34;4.10;98.50
69082;DHT22;56184;51.986;5.760;2022-11-21T07:18:00;4.10;98.60
69082;DHT22;56184;51.986;5.760;2022-11-21T07:20:26;4.10;98.60
69082;DHT22;56184;51.986;5.760;2022-11-21T07:22:54;4.10;98.70
69082;DHT22;56184;51.986;5.760;2022-11-21T07:25:21;4.10;98.70
69082;DHT22;56184;51.986;5.760;2022-11-21T07:27:46;4.10;98.30
69082;DHT22;56184;51.986;5.760;2022-11-21T07:30:12;4.20;98.20
69082;DHT22;56184;51.986;5.760;2022-11-21T07:32:38;4.20;98.20
69082;DHT22;56184;51.986;5.760;2022-11-21T07:35:04;4.20;98.20
69082;DHT22;56184;51.986;5.760;2022-11-21T07:37:30;4.20;98.40
69082;DHT22;56184;51.986;5.760;2022-11-21T07:39:55;4.20;98.30
69082;DHT22;56184;51.986;5.760;2022-11-21T07:42:21;4.20;98.20
69082;DHT22;56184;51.986;5.760;2022-11-21T07:44:46;4.30;98.30
69082;DHT22;56184;51.986;5.760;2022-11-21T07:47:12;4.30;98.20
69082;DHT22;56184;51.986;5.760;2022-11-21T07:49:38;4.30;98.30
69082;DHT22;56184;51.986;5.760;2022-11-21T07:52:04;4.30;98.30
69082;DHT22;56184;51.986;5.760;2022-11-21T07:54:29;4.20;98.40
69082;DHT22;56184;51.986;5.760;2022-11-21T07:56:55;4.30;98.50
69082;DHT22;56184;51.986;5.760;2022-11-21T07:59:20;4.30;98.30
69082;DHT22;56184;51.986;5.760;2022-11-21T08:01:46;4.40;98.30
69082;DHT22;56184;51.986;5.760;2022-11-21T08:04:11;4.40;98.40
69082;DHT22;56184;51.986;5.760;2022-11-21T08:06:37;4.40;98.50
69082;DHT22;56184;51.986;5.760;2022-11-21T08:09:03;4.40;98.40
69082;DHT22;56184;51.986;5.760;2022-11-21T08:11:28;4.50;98.20
69082;DHT22;56184;51.986;5.760;2022-11-21T08:13:56;4.50;98.30
69082;DHT22;56184;51.986;5.760;2022-11-21T08:16:22;4.40;98.60
69082;DHT22;56184;51.986;5.760;2022-11-21T08:18:52;4.50;98.60
69082;DHT22;56184;51.986;5.760;2022-11-21T08:21:17;4.50;98.70
69082;DHT22;56184;51.986;5.760;2022-11-21T08:23:43;4.50;98.70
69082;DHT22;56184;51.986;5.760;2022-11-21T08:26:09;4.50;98.80
69082;DHT22;56184;51.986;5.760;2022-11-21T08:28:35;4.60;98.80
69082;DHT22;56184;51.986;5.760;2022-11-21T08:31:04;4.70;99.00
69082;DHT22;56184;51.986;5.760;2022-11-21T08:33:30;4.70;99.10
69082;DHT22;56184;51.986;5.760;2022-11-21T08:35:56;4.70;99.20
69082;DHT22;56184;51.986;5.760;2022-11-21T08:38:21;4.70;99.50
69082;DHT22;56184;51.986;5.760;2022-11-21T08:40:47;4.80;99.10
69082;DHT22;56184;51.986;5.760;2022-11-21T08:43:33;4.80;99.10
69082;DHT22;56184;51.986;5.760;2022-11-21T08:45:58;4.80;99.10
69082;DHT22;56184;51.986;5.760;2022-11-21T08:48:24;4.90;99.10
69082;DHT22;56184;51.986;5.760;2022-11-21T08:50:49;4.90;99.00
69082;DHT22;56184;51.986;5.760;2022-11-21T08:53:15;4.90;98.60
69082;DHT22;56184;51.986;5.760;2022-11-21T08:55:40;5.00;98.50
69082;DHT22;56184;51.986;5.760;2022-11-21T08:58:06;5.00;98.50
69082;DHT22;56184;51.986;5.760;2022-11-21T09:00:31;5.00;98.40
69082;DHT22;56184;51.986;5.760;2022-11-21T09:02:57;5.10;98.30
69082;DHT22;56184;51.986;5.760;2022-11-21T09:05:23;5.00;98.40
69082;DHT22;56184;51.986;5.760;2022-11-21T09:07:55;5.10;98.30
69082;DHT22;56184;51.986;5.760;2022-11-21T09:10:22;5.10;98.20
69082;DHT22;56184;51.986;5.760;2022-11-21T09:12:50;5.10;98.50
69082;DHT22;56184;51.986;5.760;2022-11-21T09:15:18;5.10;98.70
69082;DHT22;56184;51.986;5.760;2022-11-21T09:18:03;5.10;98.80
69082;DHT22;56184;51.986;5.760;2022-11-21T09:20:30;5.10;98.90
69082;DHT22;56184;51.986;5.760;2022-11-21T09:22:56;5.20;98.40
69082;DHT22;56184;51.986;5.760;2022-11-21T09:25:22;5.20;98.90
69082;DHT22;56184;51.986;5.760;2022-11-21T09:27:50;5.30;99.30
69082;DHT22;56184;51.986;5.760;2022-11-21T09:30:16;5.50;99.10
69082;DHT22;56184;51.986;5.760;2022-11-21T09:32:41;5.50;99.00
69082;DHT22;56184;51.986;5.760;2022-11-21T09:35:07;5.60;99.00
69082;DHT22;56184;51.986;5.760;2022-11-21T09:37:36;5.60;98.90
69082;DHT22;56184;51.986;5.760;2022-11-21T09:40:02;5.70;98.90
69082;DHT22;56184;51.986;5.760;2022-11-21T09:42:51;5.70;99.10
69082;DHT22;56184;51.986;5.760;2022-11-21T09:45:30;5.80;98.80
69082;DHT22;56184;51.986;5.760;2022-11-21T09:48:01;5.80;98.90
69082;DHT22;56184;51.986;5.760;2022-11-21T09:50:31;5.80;98.90
69082;DHT22;56184;51.986;5.760;2022-11-21T09:53:02;5.90;99.10
69082;DHT22;56184;51.986;5.760;2022-11-21T09:55:45;6.00;98.90
69082;DHT22;56184;51.986;5.760;2022-11-21T09:58:20;6.00;98.70
69082;DHT22;56184;51.986;5.760;2022-11-21T10:00:52;6.10;98.20
69082;DHT22;56184;51.986;5.760;2022-11-21T10:03:20;6.10;97.90
69082;DHT22;56184;51.986;5.760;2022-11-21T10:08:27;6.10;98.40
69082;DHT22;56184;51.986;5.760;2022-11-21T10:16:59;6.60;98.20
69082;DHT22;56184;51.986;5.760;2022-11-21T10:22:24;6.60;97.40
69082;DHT22;56184;51.986;5.760;2022-11-21T10:25:07;6.60;97.40
69082;DHT22;56184;51.986;5.760;2022-11-21T10:27:52;6.60;97.40
69082;DHT22;56184;51.986;5.760;2022-11-21T10:30:21;6.60;97.30
69082;DHT22;56184;51.986;5.760;2022-11-21T10:32:56;6.60;97.10
69082;DHT22;56184;51.986;5.760;2022-11-21T10:38:02;6.60;97.40
69082;DHT22;56184;51.986;5.760;2022-11-21T10:40:39;6.60;97.40
69082;DHT22;56184;51.986;5.760;2022-11-21T10:45:59;6.60;97.50
69082;DHT22;56184;51.986;5.760;2022-11-21T10:48:25;6.70;97.40
69082;DHT22;56184;51.986;5.760;2022-11-21T10:53:35;6.80;97.20
69082;DHT22;56184;51.986;5.760;2022-11-21T10:56:21;6.80;97.50
69082;DHT22;56184;51.986;5.760;2022-11-21T10:58:52;6.80;97.80
69082;DHT22;56184;51.986;5.760;2022-11-21T11:01:27;7.00;97.50
69082;DHT22;56184;51.986;5.760;2022-11-21T11:04:16;7.00;97.40
69082;DHT22;56184;51.986;5.760;2022-11-21T11:06:44;7.10;97.40
69082;DHT22;56184;51.986;5.760;2022-11-21T11:09:25;7.20;97.30
69082;DHT22;56184;51.986;5.760;2022-11-21T11:11:53;7.30;97.30
69082;DHT22;56184;51.986;5.760;2022-11-21T11:14:31;7.30;97.30
69082;DHT22;56184;51.986;5.760;2022-11-21T11:16:57;7.30;96.90
69082;DHT22;56184;51.986;5.760;2022-11-21T11:19:28;7.30;97.40
69082;DHT22;56184;51.986;5.760;2022-11-21T11:21:54;7.30;97.00
69082;DHT22;56184;51.986;5.760;2022-11-21T11:24:23;7.30;97.30
69082;DHT22;56184;51.986;5.760;2022-11-21T11:29:24;7.40;97.50
69082;DHT22;56184;51.986;5.760;2022-11-21T11:37:34;7.50;97.70
69082;DHT22;56184;51.986;5.760;2022-11-21T11:40:36;7.70;97.90
69082;DHT22;56184;51.986;5.760;2022-11-21T11:43:33;8.00;97.60
69082;DHT22;56184;51.986;5.760;2022-11-21T11:51:59;8.10;96.60
69082;DHT22;56184;51.986;5.760;2022-11-21T11:54:39;8.10;97.10
69082;DHT22;56184;51.986;5.760;2022-11-21T11:57:08;8.20;97.30
69082;DHT22;56184;51.986;5.760;2022-11-21T11:59:40;8.40;97.00
69082;DHT22;56184;51.986;5.760;2022-11-21T12:04:50;8.40;96.90
69082;DHT22;56184;51.986;5.760;2022-11-21T12:07:36;8.50;96.60
69082;DHT22;56184;51.986;5.760;2022-11-21T12:10:16;8.60;96.50
69082;DHT22;56184;51.986;5.760;2022-11-21T12:12:48;8.70;96.50
69082;DHT22;56184;51.986;5.760;2022-11-21T12:45:56;9.20;95.80
69082;DHT22;56184;51.986;5.760;2022-11-21T12:57:28;9.30;96.60
69082;DHT22;56184;51.986;5.760;2022-11-21T13:02:43;9.40;95.50
69082;DHT22;56184;51.986;5.760;2022-11-21T13:05:17;9.50;95.40
69082;DHT22;56184;51.986;5.760;2022-11-21T13:07:48;9.60;95.40
69082;DHT22;56184;51.986;5.760;2022-11-21T13:10:16;9.70;95.00
69082;DHT22;56184;51.986;5.760;2022-11-21T13:12:58;9.70;95.10
69082;DHT22;56184;51.986;5.760;2022-11-21T13:16:06;9.80;94.90
69082;DHT22;56184;51.986;5.760;2022-11-21T13:18:43;9.80;94.80
69082;DHT22;56184;51.986;5.760;2022-11-21T13:21:43;9.90;94.90
69082;DHT22;56184;51.986;5.760;2022-11-21T13:24:09;9.90;94.30
69082;DHT22;56184;51.986;5.760;2022-11-21T13:29:09;9.80;94.60
69082;DHT22;56184;51.986;5.760;2022-11-21T13:31:35;9.90;94.90
69082;DHT22;56184;51.986;5.760;2022-11-21T13:34:02;10.00;94.40
69082;DHT22;56184;51.986;5.760;2022-11-21T13:49:32;10.20;94.30
69082;DHT22;56184;51.986;5.760;2022-11-21T13:52:05;10.30;94.30
69082;DHT22;56184;51.986;5.760;2022-11-21T13:54:39;10.40;94.10
69082;DHT22;56184;51.986;5.760;2022-11-21T14:07:51;12.00;91.10
69082;DHT22;56184;51.986;5.760;2022-11-21T14:12:47;11.80;90.10
69082;DHT22;56184;51.986;5.760;2022-11-21T14:17:54;11.30;91.10
69082;DHT22;56184;51.986;5.760;2022-11-21T14:20:27;10.90;91.60
69082;DHT22;56184;51.986;5.760;2022-11-21T14:23:03;10.50;92.00
69082;DHT22;56184;51.986;5.760;2022-11-21T14:25:42;10.20;92.90
69082;DHT22;56184;51.986;5.760;2022-11-21T14:28:12;10.00;93.40
69082;DHT22;56184;51.986;5.760;2022-11-21T14:30:42;9.80;93.70
69082;DHT22;56184;51.986;5.760;2022-11-21T14:33:29;9.70;93.80
69082;DHT22;56184;51.986;5.760;2022-11-21T14:38:42;9.40;94.10
69082;DHT22;56184;51.986;5.760;2022-11-21T14:46:31;9.10;95.00
69082;DHT22;56184;51.986;5.760;2022-11-21T14:52:14;8.80;95.20
69082;DHT22;56184;51.986;5.760;2022-11-21T14:54:59;8.70;95.60
69082;DHT22;56184;51.986;5.760;2022-11-21T14:57:28;8.70;95.70
69082;DHT22;56184;51.986;5.760;2022-11-21T14:59:55;8.50;95.90
69082;DHT22;56184;51.986;5.760;2022-11-21T15:02:23;8.50;96.30
69082;DHT22;56184;51.986;5.760;2022-11-21T15:04:51;8.40;96.30
69082;DHT22;56184;51.986;5.760;2022-11-21T15:07:25;8.30;96.80
69082;DHT22;56184;51.986;5.760;2022-11-21T15:09:51;8.30;97.00
69082;DHT22;56184;51.986;5.760;2022-11-21T15:12:35;8.30;96.80
69082;DHT22;56184;51.986;5.760;2022-11-21T15:15:18;8.20;96.80
69082;DHT22;56184;51.986;5.760;2022-11-21T15:17:49;8.20;96.80
69082;DHT22;56184;51.986;5.760;2022-11-21T15:20:19;8.20;97.00
69082;DHT22;56184;51.986;5.760;2022-11-21T15:22:46;8.10;97.00
69082;DHT22;56184;51.986;5.760;2022-11-21T15:27:47;8.10;96.70
69082;DHT22;56184;51.986;5.760;2022-11-21T15:41:03;7.90;97.10
69082;DHT22;56184;51.986;5.760;2022-11-21T15:46:32;7.80;97.30
69082;DHT22;56184;51.986;5.760;2022-11-21T15:49:03;7.80;97.50
69082;DHT22;56184;51.986;5.760;2022-11-21T15:54:03;7.70;97.70
69082;DHT22;56184;51.986;5.760;2022-11-21T15:56:30;7.70;97.60
69082;DHT22;56184;51.986;5.760;2022-11-21T15:58:56;7.70;97.60
69082;DHT22;56184;51.986;5.760;2022-11-21T16:01:26;7.70;97.40
69082;DHT22;56184;51.986;5.760;2022-11-21T16:03:58;7.70;97.80
69082;DHT22;56184;51.986;5.760;2022-11-21T16:06:25;7.70;98.00
69082;DHT22;56184;51.986;5.760;2022-11-21T16:08:52;7.70;97.90
69082;DHT22;56184;51.986;5.760;2022-11-21T16:11:23;7.70;98.00
69082;DHT22;56184;51.986;5.760;2022-11-21T16:13:50;7.70;98.00
69082;DHT22;56184;51.986;5.760;2022-11-21T16:16:16;7.60;98.10
69082;DHT22;56184;51.986;5.760;2022-11-21T16:18:41;7.60;98.20
69082;DHT22;56184;51.986;5.760;2022-11-21T16:21:08;7.60;98.30
69082;DHT22;56184;51.986;5.760;2022-11-21T16:23:35;7.60;98.20
69082;DHT22;56184;51.986;5.760;2022-11-21T16:26:00;7.60;98.20
69082;DHT22;56184;51.986;5.760;2022-11-21T16:28:27;7.60;98.00
69082;DHT22;56184;51.986;5.760;2022-11-21T16:30:52;7.60;98.00
69082;DHT22;56184;51.986;5.760;2022-11-21T16:33:18;7.60;98.10
69082;DHT22;56184;51.986;5.760;2022-11-21T16:35:43;7.70;97.80
69082;DHT22;56184;51.986;5.760;2022-11-21T16:38:09;7.60;97.70
69082;DHT22;56184;51.986;5.760;2022-11-21T16:40:35;7.60;98.40
69082;DHT22;56184;51.986;5.760;2022-11-21T16:43:09;7.60;98.30
69082;DHT22;56184;51.986;5.760;2022-11-21T16:45:36;7.60;98.40
69082;DHT22;56184;51.986;5.760;2022-11-21T16:48:03;7.50;98.40
69082;DHT22;56184;51.986;5.760;2022-11-21T16:50:28;7.60;98.10
69082;DHT22;56184;51.986;5.760;2022-11-21T16:52:54;7.60;98.00
69082;DHT22;56184;51.986;5.760;2022-11-21T16:55:19;7.60;98.30
69082;DHT22;56184;51.986;5.760;2022-11-21T16:57:45;7.60;98.30
69082;DHT22;56184;51.986;5.760;2022-11-21T17:00:11;7.60;98.20
69082;DHT22;56184;51.986;5.760;2022-11-21T17:02:37;7.60;98.30
69082;DHT22;56184;51.986;5.760;2022-11-21T17:05:03;7.60;98.30
69082;DHT22;56184;51.986;5.760;2022-11-21T17:07:30;7.50;98.60
69082;DHT22;56184;51.986;5.760;2022-11-21T17:09:56;7.60;98.70
69082;DHT22;56184;51.986;5.760;2022-11-21T17:12:21;7.60;98.40
69082;DHT22;56184;51.986;5.760;2022-11-21T17:14:48;7.60;98.30
69082;DHT22;56184;51.986;5.760;2022-11-21T17:17:14;7.60;98.30
69082;DHT22;56184;51.986;5.760;2022-11-21T17:19:40;7.60;98.30
69082;DHT22;56184;51.986;5.760;2022-11-21T17:22:05;7.60;98.30
69082;DHT22;56184;51.986;5.760;2022-11-21T17:24:31;7.70;97.80
69082;DHT22;56184;51.986;5.760;2022-11-21T17:26:56;7.70;97.80
69082;DHT22;56184;51.986;5.760;2022-11-21T17:29:26;7.60;98.00
69082;DHT22;56184;51.986;5.760;2022-11-21T17:31:52;7.70;98.00
69082;DHT22;56184;51.986;5.760;2022-11-21T17:34:17;7.70;98.10
69082;DHT22;56184;51.986;5.760;2022-11-21T17:36:43;7.60;98.00
69082;DHT22;56184;51.986;5.760;2022-11-21T17:39:08;7.70;98.00
69082;DHT22;56184;51.986;5.760;2022-11-21T17:41:34;7.60;98.10
69082;DHT22;56184;51.986;5.760;2022-11-21T17:44:00;7.60;98.20
69082;DHT22;56184;51.986;5.760;2022-11-21T17:46:26;7.60;98.20
69082;DHT22;56184;51.986;5.760;2022-11-21T17:48:53;7.70;98.00
69082;DHT22;56184;51.986;5.760;2022-11-21T17:51:21;7.70;98.00
69082;DHT22;56184;51.986;5.760;2022-11-21T17:53:48;7.60;98.00
69082;DHT22;56184;51.986;5.760;2022-11-21T17:56:16;7.60;98.10
69082;DHT22;56184;51.986;5.760;2022-11-21T17:58:42;7.60;98.10
69082;DHT22;56184;51.986;5.760;2022-11-21T18:01:09;7.60;98.20
69082;DHT22;56184;51.986;5.760;2022-11-21T18:03:38;7.50;98.20
69082;DHT22;56184;51.986;5.760;2022-11-21T18:06:10;7.60;98.20
69082;DHT22;56184;51.986;5.760;2022-11-21T18:08:40;7.50;98.20
69082;DHT22;56184;51.986;5.760;2022-11-21T18:11:08;7.50;98.30
69082;DHT22;56184;51.986;5.760;2022-11-21T18:13:35;7.60;98.00
69082;DHT22;56184;51.986;5.760;2022-11-21T18:16:15;7.60;97.70
69082;DHT22;56184;51.986;5.760;2022-11-21T18:18:41;7.60;97.80